sensor_id;sensor_type;location;lat;lon;timestamp;pressure;altitude;pressure_sealevel;temperature;humidity
19831;BME280;10076;52.008;4.708;2023-04-06T00:00:34;101772.75;;;9.30;100.00
19831;BME280;10076;52.008;4.708;2023-04-06T00:02:59;101773.22;;;9.55;100.00
19831;BME280;10076;52.008;4.708;2023-04-06T00:05:24;101770.59;;;9.38;100.00
19831;BME280;10076;52.008;4.708;2023-04-06T00:07:50;101762.31;;;9.29;100.00
19831;BME280;10076;52.008;4.708;2023-04-06T00:10:16;101759.59;;;9.30;100.00
19831;BME280;10076;52.008;4.708;2023-04-06T00:12:42;101765.50;;;9.35;100.00
19831;BME280;10076;52.008;4.708;2023-04-06T00:15:07;101771.69;;;9.34;100.00
19831;BME280;10076;52.008;4.708;2023-04-06T00:17:33;101759.94;;;9.41;100.00
19831;BME280;10076;52.008;4.708;2023-04-06T00:19:58;101762.00;;;9.35;100.00
19831;BME280;10076;52.008;4.708;2023-04-06T00:22:24;101758.03;;;9.43;100.00
19831;BME280;10076;52.008;4.708;2023-04-06T00:24:49;101762.38;;;9.44;100.00
19831;BME280;10076;52.008;4.708;2023-04-06T00:27:15;101759.16;;;9.22;100.00
19831;BME280;10076;52.008;4.708;2023-04-06T00:29:40;101753.38;;;9.31;100.00
19831;BME280;10076;52.008;4.708;2023-04-06T00:32:06;101748.91;;;9.16;100.00
19831;BME280;10076;52.008;4.708;2023-04-06T00:34:31;101750.94;;;9.28;100.00
19831;BME280;10076;52.008;4.708;2023-04-06T00:36:56;101741.63;;;9.21;100.00
19831;BME280;10076;52.008;4.708;2023-04-06T00:39:22;101741.94;;;9.32;100.00
19831;BME280;10076;52.008;4.708;2023-04-06T00:41:50;101731.38;;;9.32;100.00
19831;BME280;10076;52.008;4.708;2023-04-06T00:44:16;101735.66;;;9.35;100.00
19831;BME280;10076;52.008;4.708;2023-04-06T00:46:41;101738.59;;;9.29;100.00
19831;BME280;10076;52.008;4.708;2023-04-06T00:49:07;101728.59;;;9.35;100.00
19831;BME280;10076;52.008;4.708;2023-04-06T00:51:32;101726.03;;;9.34;100.00
19831;BME280;10076;52.008;4.708;2023-04-06T00:53:57;101726.03;;;9.34;100.00
19831;BME280;10076;52.008;4.708;2023-04-06T00:56:23;101729.34;;;9.37;100.00
19831;BME280;10076;52.008;4.708;2023-04-06T00:58:49;101725.19;;;9.33;100.00
19831;BME280;10076;52.008;4.708;2023-04-06T01:01:14;101716.91;;;9.24;100.00
19831;BME280;10076;52.008;4.708;2023-04-06T01:03:40;101715.75;;;9.12;100.00
19831;BME280;10076;52.008;4.708;2023-04-06T01:06:07;101710.84;;;8.88;100.00
19831;BME280;10076;52.008;4.708;2023-04-06T01:08:32;101699.47;;;9.04;100.00
19831;BME280;10076;52.008;4.708;2023-04-06T01:10:59;101708.69;;;8.96;100.00
19831;BME280;10076;52.008;4.708;2023-04-06T01:13:26;101701.31;;;9.02;100.00
19831;BME280;10076;52.008;4.708;2023-04-06T01:15:52;101695.91;;;8.89;100.00
19831;BME280;10076;52.008;4.708;2023-04-06T01:18:17;101699.78;;;8.82;100.00
19831;BME280;10076;52.008;4.708;2023-04-06T01:20:43;101696.44;;;8.78;100.00
19831;BME280;10076;52.008;4.708;2023-04-06T01:23:09;101696.84;;;8.88;100.00
19831;BME280;10076;52.008;4.708;2023-04-06T01:25:35;101698.16;;;8.79;100.00
19831;BME280;10076;52.008;4.708;2023-04-06T01:28:00;101691.66;;;8.86;100.00
19831;BME280;10076;52.008;4.708;2023-04-06T01:30:25;101682.88;;;8.69;100.00
19831;BME280;10076;52.008;4.708;2023-04-06T01:32:51;101683.03;;;8.83;100.00
19831;BME280;10076;52.008;4.708;2023-04-06T01:35:18;101674.38;;;8.97;100.00
19831;BME280;10076;52.008;4.708;2023-04-06T01:37:43;101676.56;;;8.90;100.00
19831;BME280;10076;52.008;4.708;2023-04-06T01:40:09;101668.31;;;8.95;100.00
19831;BME280;10076;52.008;4.708;2023-04-06T01:42:34;101663.22;;;8.93;100.00
19831;BME280;10076;52.008;4.708;2023-04-06T01:44:59;101668.47;;;8.93;100.00
19831;BME280;10076;52.008;4.708;2023-04-06T01:47:25;101660.41;;;8.79;100.00
19831;BME280;10076;52.008;4.708;2023-04-06T01:49:50;101661.19;;;8.64;100.00
19831;BME280;10076;52.008;4.708;2023-04-06T01:52:15;101655.91;;;8.64;100.00
19831;BME280;10076;52.008;4.708;2023-04-06T01:54:41;101652.91;;;8.71;100.00
19831;BME280;10076;52.008;4.708;2023-04-06T01:57:06;101653.38;;;8.96;100.00
19831;BME280;10076;52.008;4.708;2023-04-06T01:59:31;101650.56;;;8.99;100.00
19831;BME280;10076;52.008;4.708;2023-04-06T02:01:56;101642.94;;;8.94;100.00
19831;BME280;10076;52.008;4.708;2023-04-06T02:04:22;101643.25;;;8.89;100.00
19831;BME280;10076;52.008;4.708;2023-04-06T02:06:47;101645.56;;;8.94;100.00
19831;BME280;10076;52.008;4.708;2023-04-06T02:09:12;101642.94;;;8.94;100.00
19831;BME280;10076;52.008;4.708;2023-04-06T02:11:38;101649.34;;;8.89;100.00
19831;BME280;10076;52.008;4.708;2023-04-06T02:14:03;101643.69;;;8.80;100.00
19831;BME280;10076;52.008;4.708;2023-04-06T02:16:28;101633.47;;;8.91;100.00
19831;BME280;10076;52.008;4.708;2023-04-06T02:18:54;101626.50;;;8.90;100.00
19831;BME280;10076;52.008;4.708;2023-04-06T02:21:19;101630.06;;;8.89;100.00
19831;BME280;10076;52.008;4.708;2023-04-06T02:23:46;101628.13;;;8.92;100.00
19831;BME280;10076;52.008;4.708;2023-04-06T02:26:11;101624.94;;;9.02;100.00
19831;BME280;10076;52.008;4.708;2023-04-06T02:28:37;101621.25;;;8.90;100.00
19831;BME280;10076;52.008;4.708;2023-04-06T02:31:02;101624.81;;;8.89;100.00
19831;BME280;10076;52.008;4.708;2023-04-06T02:33:27;101621.91;;;8.93;100.00
19831;BME280;10076;52.008;4.708;2023-04-06T02:35:52;101614.06;;;9.08;100.00
19831;BME280;10076;52.008;4.708;2023-04-06T02:38:18;101613.47;;;9.03;100.00
19831;BME280;10076;52.008;4.708;2023-04-06T02:40:43;101612.63;;;9.03;100.00
19831;BME280;10076;52.008;4.708;2023-04-06T02:43:08;101610.53;;;8.93;100.00
19831;BME280;10076;52.008;4.708;2023-04-06T02:45:33;101608.06;;;8.90;100.00
19831;BME280;10076;52.008;4.708;2023-04-06T02:47:59;101602.63;;;8.93;100.00
19831;BME280;10076;52.008;4.708;2023-04-06T02:50:24;101602.41;;;8.97;100.00
19831;BME280;10076;52.008;4.708;2023-04-06T02:52:52;101601.00;;;8.90;100.00
19831;BME280;10076;52.008;4.708;2023-04-06T02:55:17;101595.97;;;8.86;100.00
19831;BME280;10076;52.008;4.708;2023-04-06T02:57:42;101594.75;;;8.59;100.00
19831;BME280;10076;52.008;4.708;2023-04-06T03:00:08;101597.84;;;8.67;100.00
19831;BME280;10076;52.008;4.708;2023-04-06T03:02:33;101594.91;;;8.73;100.00
19831;BME280;10076;52.008;4.708;2023-04-06T03:04:59;101589.66;;;8.90;100.00
19831;BME280;10076;52.008;4.708;2023-04-06T03:07:24;101586.59;;;8.97;100.00
19831;BME280;10076;52.008;4.708;2023-04-06T03:09:49;101578.25;;;8.89;100.00
19831;BME280;10076;52.008;4.708;2023-04-06T03:12:15;101576.91;;;8.97;100.00
19831;BME280;10076;52.008;4.708;2023-04-06T03:14:40;101573.84;;;8.90;100.00
19831;BME280;10076;52.008;4.708;2023-04-06T03:17:05;101582.81;;;8.86;100.00
19831;BME280;10076;52.008;4.708;2023-04-06T03:19:31;101576.00;;;8.82;100.00
19831;BME280;10076;52.008;4.708;2023-04-06T03:21:56;101578.16;;;8.74;100.00
19831;BME280;10076;52.008;4.708;2023-04-06T03:24:21;101575.41;;;8.77;100.00
19831;BME280;10076;52.008;4.708;2023-04-06T03:26:47;101571.19;;;8.73;100.00
19831;BME280;10076;52.008;4.708;2023-04-06T03:29:12;101570.34;;;8.89;100.00
19831;BME280;10076;52.008;4.708;2023-04-06T03:31:37;101557.91;;;8.59;100.00
19831;BME280;10076;52.008;4.708;2023-04-06T03:34:02;101564.47;;;8.67;100.00
19831;BME280;10076;52.008;4.708;2023-04-06T03:36:29;101564.78;;;8.78;100.00
19831;BME280;10076;52.008;4.708;2023-04-06T03:38:55;101567.00;;;8.86;100.00
19831;BME280;10076;52.008;4.708;2023-04-06T03:41:21;101565.06;;;8.89;100.00
19831;BME280;10076;52.008;4.708;2023-04-06T03:43:47;101564.38;;;8.86;100.00
19831;BME280;10076;52.008;4.708;2023-04-06T03:46:12;101561.75;;;8.86;100.00
19831;BME280;10076;52.008;4.708;2023-04-06T03:48:37;101556.47;;;8.86;100.00
19831;BME280;10076;52.008;4.708;2023-04-06T03:51:03;101557.56;;;8.82;100.00
19831;BME280;10076;52.008;4.708;2023-04-06T03:53:28;101548.06;;;8.79;100.00
19831;BME280;10076;52.008;4.708;2023-04-06T03:55:53;101555.56;;;8.70;100.00
19831;BME280;10076;52.008;4.708;2023-04-06T03:58:18;101554.94;;;8.82;100.00
19831;BME280;10076;52.008;4.708;2023-04-06T04:00:44;101560.97;;;8.67;100.00
19831;BME280;10076;52.008;4.708;2023-04-06T04:03:09;101559.00;;;8.72;100.00
19831;BME280;10076;52.008;4.708;2023-04-06T04:05:35;101555.28;;;8.59;100.00
19831;BME280;10076;52.008;4.708;2023-04-06T04:08:00;101550.47;;;8.50;100.00
19831;BME280;10076;52.008;4.708;2023-04-06T04:10:25;101554.72;;;8.52;100.00
19831;BME280;10076;52.008;4.708;2023-04-06T04:12:51;101543.50;;;8.66;100.00
19831;BME280;10076;52.008;4.708;2023-04-06T04:15:16;101550.31;;;8.70;100.00
19831;BME280;10076;52.008;4.708;2023-04-06T04:17:41;101543.50;;;8.66;100.00
19831;BME280;10076;52.008;4.708;2023-04-06T04:20:11;101554.81;;;8.51;100.00
19831;BME280;10076;52.008;4.708;2023-04-06T04:22:37;101550.84;;;8.42;100.00
19831;BME280;10076;52.008;4.708;2023-04-06T04:25:02;101549.72;;;8.48;100.00
19831;BME280;10076;52.008;4.708;2023-04-06T04:27:27;101550.16;;;8.39;100.00
19831;BME280;10076;52.008;4.708;2023-04-06T04:29:52;101545.97;;;8.35;100.00
19831;BME280;10076;52.008;4.708;2023-04-06T04:32:18;101546.91;;;8.34;100.00
19831;BME280;10076;52.008;4.708;2023-04-06T04:34:43;101543.75;;;8.44;100.00
19831;BME280;10076;52.008;4.708;2023-04-06T04:37:08;101537.56;;;8.28;100.00
19831;BME280;10076;52.008;4.708;2023-04-06T04:39:34;101544.50;;;8.29;100.00
19831;BME280;10076;52.008;4.708;2023-04-06T04:41:59;101537.28;;;8.16;100.00
19831;BME280;10076;52.008;4.708;2023-04-06T04:44:25;101540.50;;;8.23;100.00
19831;BME280;10076;52.008;4.708;2023-04-06T04:46:50;101545.59;;;8.42;100.00
19831;BME280;10076;52.008;4.708;2023-04-06T04:49:15;101539.09;;;8.49;100.00
19831;BME280;10076;52.008;4.708;2023-04-06T04:51:41;101539.41;;;8.43;100.00
19831;BME280;10076;52.008;4.708;2023-04-06T04:54:06;101544.28;;;8.51;100.00
19831;BME280;10076;52.008;4.708;2023-04-06T04:56:31;101535.47;;;8.35;100.00
19831;BME280;10076;52.008;4.708;2023-04-06T04:58:57;101534.06;;;8.45;100.00
19831;BME280;10076;52.008;4.708;2023-04-06T05:01:22;101539.31;;;8.45;100.00
19831;BME280;10076;52.008;4.708;2023-04-06T05:03:47;101538.09;;;8.35;100.00
19831;BME280;10076;52.008;4.708;2023-04-06T05:06:13;101537.16;;;8.53;100.00
19831;BME280;10076;52.008;4.708;2023-04-06T05:08:38;101537.78;;;8.58;100.00
19831;BME280;10076;52.008;4.708;2023-04-06T05:11:03;101536.06;;;8.40;100.00
19831;BME280;10076;52.008;4.708;2023-04-06T05:13:30;101533.97;;;8.46;100.00
19831;BME280;10076;52.008;4.708;2023-04-06T05:15:55;101535.06;;;8.42;100.00
19831;BME280;10076;52.008;4.708;2023-04-06T05:18:21;101533.13;;;8.29;100.00
19831;BME280;10076;52.008;4.708;2023-04-06T05:20:46;101543.13;;;8.56;100.00
19831;BME280;10076;52.008;4.708;2023-04-06T05:23:12;101539.47;;;8.59;100.00
19831;BME280;10076;52.008;4.708;2023-04-06T05:25:37;101538.28;;;8.81;100.00
19831;BME280;10076;52.008;4.708;2023-04-06T05:28:03;101524.44;;;8.61;100.00
19831;BME280;10076;52.008;4.708;2023-04-06T05:30:28;101529.56;;;8.64;100.00
19831;BME280;10076;52.008;4.708;2023-04-06T05:32:54;101529.84;;;8.75;100.00
19831;BME280;10076;52.008;4.708;2023-04-06T05:35:20;101535.41;;;8.86;100.00
19831;BME280;10076;52.008;4.708;2023-04-06T05:37:45;101542.63;;;8.82;100.00
19831;BME280;10076;52.008;4.708;2023-04-06T05:40:10;101533.06;;;8.96;100.00
19831;BME280;10076;52.008;4.708;2023-04-06T05:42:40;101532.72;;;9.02;100.00
19831;BME280;10076;52.008;4.708;2023-04-06T05:45:06;101544.28;;;9.00;100.00
19831;BME280;10076;52.008;4.708;2023-04-06T05:47:32;101531.72;;;9.05;100.00
19831;BME280;10076;52.008;4.708;2023-04-06T05:49:57;101531.34;;;9.12;100.00
19831;BME280;10076;52.008;4.708;2023-04-06T05:52:23;101530.81;;;9.21;100.00
19831;BME280;10076;52.008;4.708;2023-04-06T05:54:48;101529.03;;;9.06;100.00
19831;BME280;10076;52.008;4.708;2023-04-06T05:57:14;101533.63;;;9.34;100.00
19831;BME280;10076;52.008;4.708;2023-04-06T05:59:39;101532.13;;;9.30;100.00
19831;BME280;10076;52.008;4.708;2023-04-06T06:02:04;101531.69;;;9.37;100.00
19831;BME280;10076;52.008;4.708;2023-04-06T06:04:30;101535.19;;;9.38;100.00
19831;BME280;10076;52.008;4.708;2023-04-06T06:06:56;101534.19;;;9.40;100.00
19831;BME280;10076;52.008;4.708;2023-04-06T06:09:21;101538.25;;;9.46;100.00
19831;BME280;10076;52.008;4.708;2023-04-06T06:11:46;101546.69;;;9.52;100.00
19831;BME280;10076;52.008;4.708;2023-04-06T06:14:11;101536.47;;;9.46;100.00
19831;BME280;10076;52.008;4.708;2023-04-06T06:16:37;101529.25;;;9.34;100.00
19831;BME280;10076;52.008;4.708;2023-04-06T06:19:02;101531.44;;;9.42;100.00
19831;BME280;10076;52.008;4.708;2023-04-06T06:21:27;101532.81;;;9.64;100.00
19831;BME280;10076;52.008;4.708;2023-04-06T06:23:53;101523.78;;;9.53;100.00
19831;BME280;10076;52.008;4.708;2023-04-06T06:26:19;101530.59;;;9.57;100.00
19831;BME280;10076;52.008;4.708;2023-04-06T06:28:45;101527.84;;;9.73;100.00
19831;BME280;10076;52.008;4.708;2023-04-06T06:31:10;101531.56;;;9.56;100.00
19831;BME280;10076;52.008;4.708;2023-04-06T06:33:35;101530.09;;;9.81;100.00
19831;BME280;10076;52.008;4.708;2023-04-06T06:36:01;101526.00;;;9.91;100.00
19831;BME280;10076;52.008;4.708;2023-04-06T06:38:26;101535.63;;;9.76;100.00
19831;BME280;10076;52.008;4.708;2023-04-06T06:40:52;101524.63;;;9.84;100.00
19831;BME280;10076;52.008;4.708;2023-04-06T06:43:17;101538.06;;;9.79;100.00
19831;BME280;10076;52.008;4.708;2023-04-06T06:45:42;101537.41;;;9.76;100.00
19831;BME280;10076;52.008;4.708;2023-04-06T06:48:08;101528.53;;;9.92;100.00
19831;BME280;10076;52.008;4.708;2023-04-06T06:50:34;101532.47;;;10.01;100.00
19831;BME280;10076;52.008;4.708;2023-04-06T06:52:59;101529.47;;;10.07;100.00
19831;BME280;10076;52.008;4.708;2023-04-06T06:55:25;101524.44;;;10.18;100.00
19831;BME280;10076;52.008;4.708;2023-04-06T06:57:52;101521.38;;;10.25;100.00
19831;BME280;10076;52.008;4.708;2023-04-06T07:00:17;101523.78;;;10.43;100.00
19831;BME280;10076;52.008;4.708;2023-04-06T07:02:43;101526.09;;;10.34;100.00
19831;BME280;10076;52.008;4.708;2023-04-06T07:05:08;101520.19;;;10.44;100.00
19831;BME280;10076;52.008;4.708;2023-04-06T07:07:34;101521.81;;;10.61;100.00
19831;BME280;10076;52.008;4.708;2023-04-06T07:10:00;101522.69;;;10.75;100.00
19831;BME280;10076;52.008;4.708;2023-04-06T07:12:26;101523.28;;;10.80;100.00
19831;BME280;10076;52.008;4.708;2023-04-06T07:14:51;101515.25;;;10.96;100.00
19831;BME280;10076;52.008;4.708;2023-04-06T07:17:17;101522.53;;;11.06;100.00
19831;BME280;10076;52.008;4.708;2023-04-06T07:19:42;101519.69;;;10.95;100.00
19831;BME280;10076;52.008;4.708;2023-04-06T07:22:08;101519.50;;;10.98;100.00
19831;BME280;10076;52.008;4.708;2023-04-06T07:24:33;101515.53;;;11.19;100.00
19831;BME280;10076;52.008;4.708;2023-04-06T07:26:59;101513.19;;;11.28;100.00
19831;BME280;10076;52.008;4.708;2023-04-06T07:29:26;101510.88;;;11.36;100.00
19831;BME280;10076;52.008;4.708;2023-04-06T07:31:51;101514.66;;;11.32;100.00
19831;BME280;10076;52.008;4.708;2023-04-06T07:34:17;101503.50;;;11.41;100.00
19831;BME280;10076;52.008;4.708;2023-04-06T07:36:42;101502.88;;;11.24;100.00
19831;BME280;10076;52.008;4.708;2023-04-06T07:39:07;101508.63;;;11.30;100.00
19831;BME280;10076;52.008;4.708;2023-04-06T07:41:33;101507.75;;;11.58;100.00
19831;BME280;10076;52.008;4.708;2023-04-06T07:43:58;101503.38;;;11.71;100.00
19831;BME280;10076;52.008;4.708;2023-04-06T07:46:24;101506.44;;;11.65;100.00
19831;BME280;10076;52.008;4.708;2023-04-06T07:48:49;101511.16;;;11.46;100.00
19831;BME280;10076;52.008;4.708;2023-04-06T07:51:15;101506.59;;;11.62;100.00
19831;BME280;10076;52.008;4.708;2023-04-06T07:53:43;101508.69;;;11.71;100.00
19831;BME280;10076;52.008;4.708;2023-04-06T07:56:09;101509.59;;;11.83;100.00
19831;BME280;10076;52.008;4.708;2023-04-06T07:58:34;101508.03;;;11.53;100.00
19831;BME280;10076;52.008;4.708;2023-04-06T08:00:59;101510.22;;;11.47;100.00
19831;BME280;10076;52.008;4.708;2023-04-06T08:03:25;101513.34;;;11.53;100.00
19831;BME280;10076;52.008;4.708;2023-04-06T08:05:52;101508.16;;;11.52;100.00
19831;BME280;10076;52.008;4.708;2023-04-06T08:08:18;101511.31;;;11.71;100.00
19831;BME280;10076;52.008;4.708;2023-04-06T08:10:43;101519.81;;;11.75;100.00
19831;BME280;10076;52.008;4.708;2023-04-06T08:13:09;101511.47;;;11.81;100.00
19831;BME280;10076;52.008;4.708;2023-04-06T08:15:34;101517.94;;;11.77;100.00
19831;BME280;10076;52.008;4.708;2023-04-06T08:17:59;101512.88;;;11.61;100.00
19831;BME280;10076;52.008;4.708;2023-04-06T08:20:25;101514.28;;;11.92;100.00
19831;BME280;10076;52.008;4.708;2023-04-06T08:22:50;101508.41;;;12.01;100.00
19831;BME280;10076;52.008;4.708;2023-04-06T08:25:15;101511.03;;;12.01;100.00
19831;BME280;10076;52.008;4.708;2023-04-06T08:27:41;101516.78;;;12.20;100.00
19831;BME280;10076;52.008;4.708;2023-04-06T08:30:06;101520.91;;;12.12;100.00
19831;BME280;10076;52.008;4.708;2023-04-06T08:32:31;101514.09;;;11.95;100.00
19831;BME280;10076;52.008;4.708;2023-04-06T08:34:57;101518.00;;;12.02;100.00
19831;BME280;10076;52.008;4.708;2023-04-06T08:37:22;101519.31;;;12.09;100.00
19831;BME280;10076;52.008;4.708;2023-04-06T08:39:48;101516.25;;;12.15;100.00
19831;BME280;10076;52.008;4.708;2023-04-06T08:42:19;101516.38;;;12.14;100.00
19831;BME280;10076;52.008;4.708;2023-04-06T08:44:44;101518.81;;;11.90;100.00
19831;BME280;10076;52.008;4.708;2023-04-06T08:47:11;101517.84;;;11.65;100.00
19831;BME280;10076;52.008;4.708;2023-04-06T08:49:37;101514.00;;;11.57;100.00
19831;BME280;10076;52.008;4.708;2023-04-06T08:52:06;101513.06;;;11.58;100.00
19831;BME280;10076;52.008;4.708;2023-04-06T08:54:31;101507.84;;;11.42;100.00
19831;BME280;10076;52.008;4.708;2023-04-06T08:56:57;101515.22;;;11.37;100.00
19831;BME280;10076;52.008;4.708;2023-04-06T08:59:24;101515.78;;;11.42;100.00
19831;BME280;10076;52.008;4.708;2023-04-06T09:01:51;101519.50;;;11.54;100.00
19831;BME280;10076;52.008;4.708;2023-04-06T09:04:16;101514.38;;;11.51;100.00
19831;BME280;10076;52.008;4.708;2023-04-06T09:06:42;101511.72;;;11.65;100.00
19831;BME280;10076;52.008;4.708;2023-04-06T09:09:08;101512.25;;;11.83;100.00
19831;BME280;10076;52.008;4.708;2023-04-06T09:11:49;101517.81;;;12.05;100.00
19831;BME280;10076;52.008;4.708;2023-04-06T09:14:15;101513.63;;;12.28;100.00
19831;BME280;10076;52.008;4.708;2023-04-06T09:16:43;101507.31;;;12.42;100.00
19831;BME280;10076;52.008;4.708;2023-04-06T09:19:10;101517.06;;;12.42;100.00
19831;BME280;10076;52.008;4.708;2023-04-06T09:21:36;101513.19;;;12.09;100.00
19831;BME280;10076;52.008;4.708;2023-04-06T09:24:02;101504.97;;;12.26;100.00
19831;BME280;10076;52.008;4.708;2023-04-06T09:26:28;101509.19;;;12.16;100.00
19831;BME280;10076;52.008;4.708;2023-04-06T09:28:55;101514.88;;;12.10;100.00
19831;BME280;10076;52.008;4.708;2023-04-06T09:31:25;101508.59;;;12.11;100.00
19831;BME280;10076;52.008;4.708;2023-04-06T09:33:51;101506.16;;;11.95;100.00
19831;BME280;10076;52.008;4.708;2023-04-06T09:36:17;101506.47;;;12.03;100.00
19831;BME280;10076;52.008;4.708;2023-04-06T09:38:56;101508.84;;;12.20;100.00
19831;BME280;10076;52.008;4.708;2023-04-06T09:41:27;101502.78;;;12.44;100.00
19831;BME280;10076;52.008;4.708;2023-04-06T09:44:10;101503.66;;;12.19;100.00
19831;BME280;10076;52.008;4.708;2023-04-06T09:49:04;101505.97;;;12.11;100.00
19831;BME280;10076;52.008;4.708;2023-04-06T09:51:37;101497.88;;;11.73;100.00
19831;BME280;10076;52.008;4.708;2023-04-06T09:54:02;101499.09;;;11.82;100.00
19831;BME280;10076;52.008;4.708;2023-04-06T09:56:52;101494.41;;;11.73;100.00
19831;BME280;10076;52.008;4.708;2023-04-06T10:02:08;101502.63;;;11.69;100.00
19831;BME280;10076;52.008;4.708;2023-04-06T10:07:06;101490.59;;;11.51;100.00
19831;BME280;10076;52.008;4.708;2023-04-06T10:09:33;101490.09;;;11.44;100.00
19831;BME280;10076;52.008;4.708;2023-04-06T10:12:07;101489.06;;;11.47;100.00
19831;BME280;10076;52.008;4.708;2023-04-06T10:14:33;101487.16;;;11.63;100.00
19831;BME280;10076;52.008;4.708;2023-04-06T10:17:03;101490.94;;;11.59;100.00
19831;BME280;10076;52.008;4.708;2023-04-06T10:19:35;101482.91;;;11.60;100.00
19831;BME280;10076;52.008;4.708;2023-04-06T10:22:05;101488.31;;;11.59;100.00
19831;BME280;10076;52.008;4.708;2023-04-06T10:24:31;101485.38;;;11.49;100.00
19831;BME280;10076;52.008;4.708;2023-04-06T10:27:06;101480.38;;;11.59;100.00
19831;BME280;10076;52.008;4.708;2023-04-06T10:29:47;101488.28;;;11.45;100.00
19831;BME280;10076;52.008;4.708;2023-04-06T10:32:16;101473.94;;;11.49;100.00
19831;BME280;10076;52.008;4.708;2023-04-06T10:34:41;101474.75;;;11.23;100.00
19831;BME280;10076;52.008;4.708;2023-04-06T10:37:16;101476.72;;;11.19;100.00
19831;BME280;10076;52.008;4.708;2023-04-06T10:39:51;101475.63;;;11.09;100.00
19831;BME280;10076;52.008;4.708;2023-04-06T10:42:23;101472.97;;;11.09;100.00
19831;BME280;10076;52.008;4.708;2023-04-06T10:44:49;101463.81;;;11.01;100.00
19831;BME280;10076;52.008;4.708;2023-04-06T10:47:16;101477.78;;;10.89;100.00
19831;BME280;10076;52.008;4.708;2023-04-06T10:49:43;101468.94;;;10.90;100.00
19831;BME280;10076;52.008;4.708;2023-04-06T10:52:08;101472.63;;;10.88;100.00
19831;BME280;10076;52.008;4.708;2023-04-06T10:54:42;101465.22;;;10.79;100.00
19831;BME280;10076;52.008;4.708;2023-04-06T10:57:10;101460.06;;;10.77;100.00
19831;BME280;10076;52.008;4.708;2023-04-06T10:59:35;101457.50;;;11.03;100.00
19831;BME280;10076;52.008;4.708;2023-04-06T11:02:00;101458.91;;;10.95;100.00
19831;BME280;10076;52.008;4.708;2023-04-06T11:04:26;101453.72;;;10.80;100.00
19831;BME280;10076;52.008;4.708;2023-04-06T11:06:51;101437.31;;;10.75;100.00
19831;BME280;10076;52.008;4.708;2023-04-06T11:09:43;101447.59;;;10.65;100.00
19831;BME280;10076;52.008;4.708;2023-04-06T11:12:24;101449.50;;;10.77;100.00
19831;BME280;10076;52.008;4.708;2023-04-06T11:15:00;101441.38;;;10.80;100.00
19831;BME280;10076;52.008;4.708;2023-04-06T11:17:28;101442.41;;;10.78;100.00
19831;BME280;10076;52.008;4.708;2023-04-06T11:19:55;101443.25;;;10.92;100.00
19831;BME280;10076;52.008;4.708;2023-04-06T11:22:20;101441.38;;;10.94;100.00
19831;BME280;10076;52.008;4.708;2023-04-06T11:24:45;101441.09;;;10.85;100.00
19831;BME280;10076;52.008;4.708;2023-04-06T11:27:11;101447.41;;;10.82;100.00
19831;BME280;10076;52.008;4.708;2023-04-06T11:29:37;101438.16;;;10.75;100.00
19831;BME280;10076;52.008;4.708;2023-04-06T11:32:04;101428.47;;;10.48;100.00
19831;BME280;10076;52.008;4.708;2023-04-06T11:34:33;101437.38;;;10.32;100.00
19831;BME280;10076;52.008;4.708;2023-04-06T11:37:03;101439.66;;;10.37;100.00
19831;BME280;10076;52.008;4.708;2023-04-06T11:39:31;101425.59;;;10.37;100.00
19831;BME280;10076;52.008;4.708;2023-04-06T11:42:01;101435.22;;;10.66;100.00
19831;BME280;10076;52.008;4.708;2023-04-06T11:44:40;101432.13;;;10.59;100.00
19831;BME280;10076;52.008;4.708;2023-04-06T11:47:09;101421.56;;;10.59;100.00
19831;BME280;10076;52.008;4.708;2023-04-06T11:49:42;101418.91;;;10.59;100.00
19831;BME280;10076;52.008;4.708;2023-04-06T11:52:34;101419.38;;;10.80;100.00
19831;BME280;10076;52.008;4.708;2023-04-06T11:55:10;101417.22;;;10.72;100.00
19831;BME280;10076;52.008;4.708;2023-04-06T11:57:36;101412.88;;;10.85;100.00
19831;BME280;10076;52.008;4.708;2023-04-06T12:00:02;101416.56;;;10.83;100.00
19831;BME280;10076;52.008;4.708;2023-04-06T12:02:27;101422.97;;;10.93;100.00
19831;BME280;10076;52.008;4.708;2023-04-06T12:04:52;101409.28;;;10.58;100.00
19831;BME280;10076;52.008;4.708;2023-04-06T12:07:18;101426.00;;;10.59;100.00
19831;BME280;10076;52.008;4.708;2023-04-06T12:09:43;101419.28;;;10.53;100.00
19831;BME280;10076;52.008;4.708;2023-04-06T12:12:08;101412.41;;;10.51;100.00
19831;BME280;10076;52.008;4.708;2023-04-06T12:14:33;101406.84;;;10.69;100.00
19831;BME280;10076;52.008;4.708;2023-04-06T12:16:59;101403.06;;;10.59;100.00
19831;BME280;10076;52.008;4.708;2023-04-06T12:19:24;101417.97;;;10.46;100.00
19831;BME280;10076;52.008;4.708;2023-04-06T12:21:51;101406.59;;;10.60;100.00
19831;BME280;10076;52.008;4.708;2023-04-06T12:24:16;101399.50;;;10.74;100.00
19831;BME280;10076;52.008;4.708;2023-04-06T12:26:42;101399.56;;;10.73;100.00
19831;BME280;10076;52.008;4.708;2023-04-06T12:29:07;101402.63;;;10.53;100.00
19831;BME280;10076;52.008;4.708;2023-04-06T12:31:35;101402.53;;;10.68;100.00
19831;BME280;10076;52.008;4.708;2023-04-06T12:34:00;101401.56;;;10.83;100.00
19831;BME280;10076;52.008;4.708;2023-04-06T12:36:27;101398.47;;;10.77;100.00
19831;BME280;10076;52.008;4.708;2023-04-06T12:38:52;101399.31;;;10.77;100.00
19831;BME280;10076;52.008;4.708;2023-04-06T12:41:18;101399.69;;;10.71;100.00
19831;BME280;10076;52.008;4.708;2023-04-06T12:43:44;101396.28;;;10.55;100.00
19831;BME280;10076;52.008;4.708;2023-04-06T12:46:10;101406.59;;;10.60;100.00
19831;BME280;10076;52.008;4.708;2023-04-06T12:48:36;101396.19;;;10.57;100.00